Two Rivers, AK

4:48 PM AKDT on May 05, 2015 (GMT -0800)
Fairbanks International | | Change Station
CLOSE
Current Station
Airport
Location: Fairbanks,
Elevation: 433 ft
Nearby Weather Stations

Elev 433 ft 64.80 °N, 147.88 °W | Updated 55 minutes ago

Mostly Cloudy
Mostly Cloudy
55 °F
Feels Like 55 °F
N
10
Wind Variable Wind from West

Today
High -- | Low -- °F
--% Chance of Precip.
Yesterday
High -- | Low -- °F
Precip. -- in
5:03 AM 10:33 PM
Waning Gibbous, 96% visible
Pressure 29.97 in
Visibility 10.0 miles
Clouds Few 7500 ft
Mostly Cloudy 11000 ft
Mostly Cloudy 20000 ft
Dew Point 20 °F
Humidity 25%
Rainfall 0.00 in
Snow Depth Not available.
UV 2 out of 12
Pollen Not available.
Air Quality Not available.
Flu Activity Sporadic
METAR PAFA 052353Z 27009KT 10SM FEW075 BKN110 BKN200 13/M07 A2995 RMK AO2 SLP148 VIRGA E-S T01281067 10139 20078 53003

More Conditions Fewer Conditions

Pressure 29.97 in
Visibility 10.0 miles
Clouds Few 7500 ft
Mostly Cloudy 11000 ft
Mostly Cloudy 20000 ft
Dew Point 20 °F
Humidity 25%
Rainfall 0.00 in
Snow Depth Not available.
UV 2 out of 12
Pollen Not available.
Air Quality Not available.
Flu Activity Sporadic
METAR PAFA 052353Z 27009KT 10SM FEW075 BKN110 BKN200 13/M07 A2995 RMK AO2 SLP148 VIRGA E-S T01281067 10139 20078 53003

More Conditions Fewer Conditions

10-Day Weather Forecast

Almanac

Astronomy

May. 05, 2015 Rise Set
Actual Time
Civil Twilight
Nautical Twilight
Astronomical Twilight
Moon
Length of Visible Light
Length of Day
Tomorrow will be .
, % of the Moon is Illuminated

Today's Extremes

State Highs State Lows

Community

WunderPhotos

Upload Photos

1,819,025 photos uploaded!

WunderBlogs® & News

Nearby

Air Quality

  Air Quality AQ Index Pollutant
Not available.

Snow Depth

Station Depth Elevation

Earthquake Activity

City Distance Mag. Time & Date
Minimum magnitude displayed is 2.5.

Coastal Water Temperatures

Place Temperature

Stations

Nearby Weather Stations

Station Location Temp. Windchill Dew Point Humidity Wind Precip. Elev Updated Type